Latest Weather Observations for Windorah

IDQ60801

Issued at 8:12 pm EST Friday 26 February 2021 (issued every 10 minutes, with the page automatically refreshed every 10 minutes)

About weather observations | Map of weather stations | Latest weather observations for QLD | Other Formats
Station Details ID: 038076 Name: WINDORAH AIRPORT Lat: -25.41 Lon: 142.66 Height: 132.16 m
Data from the previous 72 hours. | See also: Recent months at Windorah
Date/Time
EST
Temp
°C
App
Temp
°C
Dew
Point
°C
Rel
Hum
%
Delta-T
°C
Wind Press
QNH
hPa
Press
MSL
hPa
Rain since
9am
mm
Dir  Spd
km/h
Gust
km/h
Spd
kts
Gust
kts
26/08:00pm 28.5 29.5 17.7 52 6.9 ENE 9 11 5 6 1006.2 1005.2 1.4
26/07:30pm 29.0 28.9 16.9 48 7.6 ENE 13 15 7 8 1005.9 1004.9 1.4
26/07:00pm 29.1 28.9 17.6 50 7.3 NE 15 22 8 12 1005.5 1004.5 1.4
26/06:30pm 29.6 28.8 18.4 51 7.2 NE 20 30 11 16 1005.2 1004.2 1.4
26/06:00pm 29.9 28.5 18.7 51 7.3 NE 24 37 13 20 1005.3 1004.3 1.4
26/05:30pm 31.1 28.9 18.8 48 8.0 NE 28 35 15 19 1005.2 1004.2 1.4
26/05:00pm 31.6 29.8 16.0 39 9.8 ESE 20 39 11 21 1005.0 1004.0 1.4
26/04:30pm 31.5 29.5 15.5 38 10.0 S 20 28 11 15 1004.4 1003.4 1.4
26/04:00pm 30.7 29.6 16.3 42 9.1 E 17 24 9 13 1004.2 1003.2 1.4
26/03:30pm 29.2 28.1 17.7 50 7.3 ENE 20 24 11 13 1004.4 1003.4 1.4
26/03:12pm 24.7 21.7 19.1 71 3.6 NNW 33 56 18 30 1005.9 1004.9 1.2
26/03:09pm 26.9 21.8 15.9 51 6.8 NW 37 56 20 30 1006.1 1005.1 1.0
26/03:00pm 27.5 22.4 16.8 52 6.7 NW 39 54 21 29 1005.7 1004.7 0.0
26/02:46pm 28.7 27.6 17.2 49 7.3 NNW 19 48 10 26 1004.9 1003.9 0.0
26/02:45pm 29.7 28.9 17.2 47 7.9 NNW 17 44 9 24 1004.8 1003.8 0.0
26/02:30pm 34.8 35.4 15.2 31 12.3 ENE 6 15 3 8 1004.4 1003.4 0.0
26/02:00pm 35.6 34.7 14.8 28 13.0 N 13 24 7 13 1004.7 1003.7 0.0
26/01:30pm 34.9 33.4 15.3 31 12.3 NNE 17 33 9 18 1005.8 1004.8 0.0
26/01:00pm 34.3 33.2 15.2 31 12.0 N 15 22 8 12 1006.0 1005.0 0.0
26/12:30pm 34.0 33.3 15.5 33 11.6 N 13 26 7 14 1006.3 1005.3 0.0
26/12:00pm 33.7 33.5 15.7 34 11.4 ENE 11 24 6 13 1006.7 1005.7 0.0
26/11:30am 34.0 33.8 16.8 35 11.0 NE 13 20 7 11 1007.1 1006.1 0.0
26/11:00am 32.5 32.1 16.3 37 10.3 NNE 13 20 7 11 1007.5 1006.5 0.0
26/10:30am 32.1 31.3 17.2 41 9.5 NNE 17 24 9 13 1007.5 1006.5 0.0
26/10:00am 30.5 30.0 16.9 44 8.6 NNE 15 20 8 11 1007.8 1006.8 0.0
26/09:30am 30.2 29.9 17.3 46 8.2 NE 15 22 8 12 1007.8 1006.8 0.0
26/09:00am 29.0 28.7 16.5 46 7.8 ENE 13 19 7 10 1007.9 1006.9 0.0
26/08:30am 27.3 27.6 16.0 50 7.0 ESE 9 11 5 6 1007.9 1006.9 0.0
26/08:00am 26.3 26.3 16.3 54 6.2 E 11 15 6 8 1007.9 1006.9 0.0
26/07:30am 25.8 26.0 15.8 54 6.1 E 9 13 5 7 1007.8 1006.8 0.0
26/07:00am 24.9 24.2 13.1 48 6.9 ESE 9 15 5 8 1007.4 1006.4 0.0
26/06:30am 24.5 23.1 10.8 42 7.7 ESE 9 13 5 7 1007.1 1006.1 0.0
26/06:00am 23.9 20.7 3.2 26 10.1 SE 9 13 5 7 1006.8 1005.8 0.0
26/05:30am 23.3 19.4 1.0 23 10.4 SSE 11 15 6 8 1006.7 1005.7 0.0
26/05:00am 23.2 19.6 0.3 22 10.5 S 9 11 5 6 1006.6 1005.6 0.0
26/04:30am 23.4 19.8 0.5 22 10.6 S 9 11 5 6 1006.5 1005.5 0.0
26/04:00am 23.2 20.0 0.9 23 10.4 SSW 7 9 4 5 1006.3 1005.3 0.0
26/03:30am 23.5 20.6 1.2 23 10.4 SSW 6 7 3 4 1006.4 1005.4 0.0
26/03:00am 24.0 21.0 2.2 24 10.5 SW 7 11 4 6 1006.3 1005.3 0.0
26/02:30am 25.1 24.2 7.7 33 9.3 SSE 2 7 1 4 1006.3 1005.3 0.0
26/02:00am 25.3 23.5 7.9 33 9.3 S 7 11 4 6 1006.7 1005.7 0.0
26/01:30am 26.1 24.5 8.6 33 9.5 SE 7 9 4 5 1007.0 1006.0 0.0
26/01:00am 26.2 23.1 3.5 23 11.3 S 9 11 5 6 1007.3 1006.3 0.0
26/12:30am 26.4 23.0 1.7 20 11.9 SE 9 13 5 7 1007.5 1006.5 0.0
26/12:00am 26.2 21.5 0.8 19 12.1 SSW 15 20 8 11 1007.2 1006.2 0.0
 
Date/Time
EST
Temp
°C
App
Temp
°C
Dew
Point
°C
Rel
Hum
%
Delta-T
°C
Wind Press
QNH
hPa
Press
MSL
hPa
Rain since
9am
mm
Dir  Spd
km/h
Gust
km/h
Spd
kts
Gust
kts
25/11:30pm 26.4 22.4 0.2 18 12.3 S 11 15 6 8 1007.6 1006.6 0.0
25/11:00pm 27.3 23.6 0.1 17 12.9 S 9 13 5 7 1007.8 1006.8 0.0
25/10:30pm 28.1 23.6 -0.1 16 13.3 SSW 13 17 7 9 1007.7 1006.7 0.0
25/10:00pm 28.7 24.2 -0.5 15 13.8 SSW 13 17 7 9 1007.5 1006.5 0.0
25/09:30pm 29.6 24.4 0.2 15 14.1 SSW 17 20 9 11 1007.2 1006.2 0.0
25/09:00pm 30.1 25.2 -0.3 14 14.6 SW 15 17 8 9 1006.9 1005.9 0.0
25/08:30pm 30.9 25.4 0.3 14 14.9 SSW 19 24 10 13 1006.4 1005.4 0.0
25/08:00pm 31.6 27.0 1.8 15 15.0 SW 15 19 8 10 1005.9 1004.9 0.0
25/07:30pm 33.0 28.6 2.9 15 15.5 SSW 15 19 8 10 1005.7 1004.7 0.0
25/07:00pm 33.9 29.1 2.7 14 16.1 SSW 17 22 9 12 1005.3 1004.3 0.0
25/06:30pm 34.6 29.9 3.2 14 16.4 SSW 17 24 9 13 1005.0 1004.0 0.0
25/06:00pm 35.1 31.6 3.6 14 16.6 S 11 26 6 14 1004.7 1003.7 0.0
25/05:30pm 35.3 30.7 3.8 14 16.7 SSW 17 28 9 15 1004.5 1003.5 0.0
25/05:00pm 35.7 30.6 4.1 14 16.9 S 20 32 11 17 1003.8 1002.8 0.0
25/04:30pm 35.6 31.6 5.0 15 16.5 SW 15 26 8 14 1003.7 1002.7 0.0
25/04:00pm 35.2 31.2 6.5 17 15.9 S 17 26 9 14 1004.0 1003.0 0.0
25/03:30pm 35.0 31.9 7.1 18 15.5 WSW 13 20 7 11 1004.6 1003.6 0.0
25/03:00pm 34.9 31.8 7.1 18 15.5 S 13 20 7 11 1005.2 1004.2 0.0
25/02:30pm 34.3 32.4 7.4 19 15.0 ESE 7 17 4 9 1005.8 1004.8 0.0
25/02:00pm 34.4 31.9 8.2 20 14.8 SE 11 20 6 11 1006.2 1005.2 0.0
25/01:30pm 34.1 31.6 8.0 20 14.7 SE 11 20 6 11 1006.6 1005.6 0.0
25/01:00pm 32.9 30.5 7.0 20 14.3 S 9 20 5 11 1007.0 1006.0 0.0
25/12:30pm 33.0 30.2 7.1 20 14.3 SE 11 20 6 11 1007.4 1006.4 0.0
25/12:00pm 32.5 30.0 6.7 20 14.1 ESE 9 19 5 10 1007.9 1006.9 0.0
25/11:30am 31.5 28.2 4.3 18 14.2 S 11 20 6 11 1008.3 1007.3 0.0
25/11:00am 30.3 26.5 4.1 19 13.6 ESE 13 20 7 11 1008.7 1007.7 0.0
25/10:30am 29.6 24.8 2.8 18 13.5 SE 17 26 9 14 1009.0 1008.0 0.0
25/10:00am 29.5 23.8 -0.8 14 14.3 SSE 19 30 10 16 1009.1 1008.1 0.0
25/09:30am 28.9 22.3 -3.3 12 14.5 SSE 22 32 12 17 1008.9 1007.9 0.0
25/09:00am 27.5 20.4 -4.4 12 13.9 SSE 24 33 13 18 1008.7 1007.7 0.0
25/08:30am 26.6 18.7 -5.1 12 13.5 SSE 28 37 15 20 1008.4 1007.4 0.0
25/08:00am 25.9 19.5 -4.6 13 13.1 SSE 20 28 11 15 1008.7 1007.7 0.0
25/07:30am 24.0 19.1 -3.3 16 11.8 S 13 17 7 9 1008.5 1007.5 0.0
25/07:00am 22.3 17.4 -3.1 18 10.9 SSW 13 17 7 9 1008.2 1007.2 0.0
25/06:30am 22.0 17.5 -3.4 18 10.7 SSW 11 13 6 7 1007.7 1006.7 0.0
25/06:00am 22.1 17.6 -3.3 18 10.8 SSW 11 13 6 7 1007.3 1006.3 0.0
25/05:30am 22.5 17.9 -3.7 17 11.1 S 11 15 6 8 1006.7 1005.7 0.0
25/05:00am 23.0 18.5 -3.3 17 11.3 S 11 13 6 7 1006.7 1005.7 0.0
25/04:30am 23.1 18.2 -3.3 17 11.3 SSW 13 19 7 10 1006.3 1005.3 0.0
25/04:00am 23.5 19.0 -2.9 17 11.5 SSW 11 15 6 8 1006.3 1005.3 0.0
25/03:30am 24.6 20.0 -3.7 15 12.2 S 11 15 6 8 1006.2 1005.2 0.0
25/03:00am 25.5 20.2 -3.9 14 12.8 S 15 20 8 11 1006.2 1005.2 0.0
25/02:30am 25.9 21.1 -2.7 15 12.7 S 13 17 7 9 1006.5 1005.5 0.0
25/02:00am 26.5 21.4 -2.2 15 12.9 SSE 15 20 8 11 1006.7 1005.7 0.0
25/01:30am 27.1 21.4 -0.9 16 13.0 S 19 24 10 13 1007.0 1006.0 0.0
25/01:00am 27.3 21.8 0.9 18 12.7 S 19 24 10 13 1007.2 1006.2 0.0
25/12:30am 27.5 22.1 1.1 18 12.7 S 19 24 10 13 1007.3 1006.3 0.0
25/12:00am 28.0 23.0 1.5 18 12.9 S 17 24 9 13 1007.4 1006.4 0.0
 
Date/Time
EST
Temp
°C
App
Temp
°C
Dew
Point
°C
Rel
Hum
%
Delta-T
°C
Wind Press
QNH
hPa
Press
MSL
hPa
Rain since
9am
mm
Dir  Spd
km/h
Gust
km/h
Spd
kts
Gust
kts
24/11:30pm 28.6 23.6 1.2 17 13.3 S 17 20 9 11 1007.5 1006.5 0.0
24/11:00pm 29.3 23.8 1.7 17 13.6 S 20 26 11 14 1007.3 1006.3 0.0
24/10:30pm 29.8 23.8 1.3 16 14.0 S 22 30 12 16 1007.2 1006.2 0.0
24/10:00pm 30.4 24.1 1.8 16 14.2 S 24 33 13 18 1006.9 1005.9 0.0
24/09:30pm 31.0 25.2 2.3 16 14.4 S 22 30 12 16 1006.6 1005.6 0.0
24/09:00pm 31.4 26.4 3.4 17 14.4 S 19 24 10 13 1006.3 1005.3 0.0
24/08:30pm 32.2 27.5 3.2 16 14.9 S 17 24 9 13 1005.9 1004.9 0.0
24/08:00pm 33.1 27.4 3.0 15 15.6 S 22 32 12 17 1005.3 1004.3 0.0
24/07:30pm 34.0 28.3 2.8 14 16.1 SSW 22 32 12 17 1005.0 1004.0 0.0
24/07:00pm 34.9 31.2 4.4 15 16.3 SSW 13 19 7 10 1004.6 1003.6 0.0
24/06:30pm 35.7 30.8 4.1 14 16.8 S 19 22 10 12 1004.2 1003.2 0.0
24/06:00pm 36.4 32.3 4.6 14 17.2 SSW 15 22 8 12 1004.1 1003.1 0.0
24/05:30pm 36.3 31.3 4.6 14 17.1 SW 20 30 11 16 1004.0 1003.0 0.0
24/05:00pm 36.6 32.8 5.8 15 17.0 SSW 15 24 8 13 1004.0 1003.0 0.0
24/04:30pm 36.3 32.4 5.5 15 16.8 S 15 28 8 15 1004.2 1003.2 0.0
24/04:00pm 37.0 32.9 6.1 15 17.1 SSW 17 33 9 18 1004.4 1003.4 0.0
24/03:30pm 36.1 33.9 6.3 16 16.5 SE 7 17 4 9 1004.8 1003.8 0.0
24/03:00pm 36.7 32.2 6.8 16 16.7 SSW 20 37 11 20 1005.3 1004.3 0.0
24/02:30pm 36.5 32.5 6.6 16 16.6 SSW 17 30 9 16 1005.7 1004.7 0.0
24/02:00pm 35.2 30.8 6.5 17 15.9 SSW 19 33 10 18 1006.2 1005.2 0.0
24/01:30pm 35.1 33.1 7.2 18 15.5 S 7 13 4 7 1006.7 1005.7 0.0
24/01:00pm 35.0 31.1 7.1 18 15.5 S 17 28 9 15 1007.2 1006.2 0.0
24/12:30pm 34.2 30.4 5.7 17 15.4 SSE 15 26 8 14 1007.7 1006.7 0.0
24/12:00pm 32.9 29.8 5.5 18 14.7 S 11 17 6 9 1008.1 1007.1 0.0
24/11:30am 32.7 28.4 5.3 18 14.6 ESE 17 26 9 14 1008.5 1007.5 0.0
24/11:00am 31.4 27.4 5.0 19 13.9 SE 15 24 8 13 1009.1 1008.1 0.0
24/10:30am 31.0 26.3 3.1 17 14.2 ESE 17 26 9 14 1009.5 1008.5 0.0
24/10:00am 29.6 24.1 2.0 17 13.7 SE 20 26 11 14 1009.5 1008.5 0.0
24/09:30am 28.6 23.0 1.2 17 13.3 SE 20 32 11 17 1009.7 1008.7 0.0
24/09:00am 28.0 21.9 0.7 17 13.1 SE 22 32 12 17 1009.5 1008.5 0.0
24/08:30am 26.9 20.1 0.6 18 12.5 SE 26 33 14 18 1009.4 1008.4 0.0
24/08:00am 26.0 20.3 0.6 19 12.0 SSE 20 28 11 15 1009.4 1008.4 0.0
24/07:30am 25.1 19.6 0.6 20 11.5 SSE 19 24 10 13 1009.2 1008.2 0.0
24/07:00am 24.2 19.4 0.5 21 11.0 SSE 15 19 8 10 1009.0 1008.0 0.0
24/06:30am 23.7 19.0 0.7 22 10.7 SSE 15 20 8 11 1008.8 1007.8 0.0
24/06:00am 24.1 19.1 1.1 22 10.8 SSE 17 20 9 11 1008.6 1007.6 0.0
24/05:30am 24.3 19.3 1.2 22 10.9 SSE 17 20 9 11 1008.4 1007.4 0.0
24/05:00am 24.8 19.9 1.7 22 11.0 SSE 17 24 9 13 1008.3 1007.3 0.0
24/04:30am 24.4 20.2 1.9 23 10.7 S 13 17 7 9 1008.0 1007.0 0.0
24/04:00am 23.6 19.7 1.3 23 10.5 S 11 13 6 7 1007.8 1006.8 0.0
24/03:30am 24.1 19.8 1.1 22 10.8 S 13 13 7 7 1007.9 1006.9 0.0
24/03:00am 24.5 20.3 1.4 22 11.0 S 13 17 7 9 1008.0 1007.0 0.0
24/02:30am 24.9 21.1 1.7 22 11.1 S 11 15 6 8 1008.2 1007.2 0.0
24/02:00am 25.6 21.4 1.7 21 11.5 S 13 17 7 9 1008.5 1007.5 0.0
24/01:30am 26.5 22.3 1.7 20 12.0 S 13 17 7 9 1008.8 1007.8 0.0
24/01:00am 27.3 22.8 2.4 20 12.3 S 15 20 8 11 1009.0 1008.0 0.0
24/12:30am 27.9 23.2 2.9 20 12.5 S 17 26 9 14 1009.3 1008.3 0.0
24/12:00am 28.5 23.3 2.7 19 12.9 S 19 24 10 13 1009.3 1008.3 0.0
 
Date/Time
EST
Temp
°C
App
Temp
°C
Dew
Point
°C
Rel
Hum
%
Delta-T
°C
Wind Press
QNH
hPa
Press
MSL
hPa
Rain since
9am
mm
Dir  Spd
km/h
Gust
km/h
Spd
kts
Gust
kts
23/11:30pm 29.1 24.2 3.9 20 12.9 S 19 24 10 13 1009.3 1008.3 0.0
23/11:00pm 29.8 24.9 5.1 21 13.0 S 20 26 11 14 1009.1 1008.1 0.0
23/10:30pm 30.5 25.3 5.7 21 13.2 S 22 30 12 16 1008.8 1007.8 0.0
23/10:00pm 31.0 25.8 5.4 20 13.6 S 22 32 12 17 1008.7 1007.7 0.0
23/09:30pm 31.6 25.6 5.2 19 14.0 S 26 37 14 20 1008.3 1007.3 0.0
23/09:00pm 32.1 26.0 4.8 18 14.4 S 26 35 14 19 1007.9 1006.9 0.0
23/08:30pm 32.7 27.5 5.3 18 14.6 S 22 30 12 16 1007.4 1006.4 0.0

Other formats

Comma delimited format used in spreadsheet applications
http://www.bom.gov.au/fwo/IDQ60801/IDQ60801.94489.axf

JavaScript Object Notation format (JSON) in row-major order
http://www.bom.gov.au/fwo/IDQ60801/IDQ60801.94489.json

Data quality

Most of these data are generated automatically and are frequently updated. Quality checks on data are not normally performed. It is possible for incorrect values to appear. Refer to information at About Latest Weather Observations and please check the disclaimer before using these data.